Time;durP1;ratioP1;P1;durP2;ratioP2;P2;SDS_P1;SDS_P2;PMS_P1;PMS_P2;Temp;Humidity;BMP_temperature;BMP_pressure;BME280_temperature;BME280_humidity;BME280_pressure;Samples;Min_cycle;Max_cycle;Signal;HPM_P1;HPM_P2
2022/04/21 00:00:35;;;;;;;4.63;4.23;;;;;;;;;;4955224;28;20421;-50
2022/04/21 00:03:01;;;;;;;4.53;4.13;;;;;;;;;;4955781;28;20457;-50
2022/04/21 00:05:28;;;;;;;5.10;4.60;;;;;;;;;;4955914;28;20414;-50
2022/04/21 00:07:55;;;;;;;5.50;4.40;;;;;;;;;;4956039;28;20449;-52
2022/04/21 00:10:21;;;;;;;5.60;4.27;;;;;;;;;;4955095;28;20430;-51
2022/04/21 00:12:47;;;;;;;6.93;4.43;;;;;;;;;;4955812;28;20410;-49
2022/04/21 00:15:15;;;;;;;8.33;5.03;;;;;;;;;;4955676;28;20417;-50
2022/04/21 00:17:41;;;;;;;4.23;3.90;;;;;;;;;;4955612;28;20414;-50
2022/04/21 00:20:09;;;;;;;6.33;4.23;;;;;;;;;;4954839;28;20430;-50
2022/04/21 00:25:20;;;;;;;7.10;4.30;;;;;;;;;;4955888;29;20413;-51
2022/04/21 00:27:46;;;;;;;5.67;4.27;;;;;;;;;;4955528;28;20514;-51
2022/04/21 00:30:13;;;;;;;5.33;4.30;;;;;;;;;;4953365;28;20422;-51
2022/04/21 00:32:40;;;;;;;4.60;4.20;;;;;;;;;;4955764;28;20424;-50
2022/04/21 00:35:06;;;;;;;5.30;4.80;;;;;;;;;;4955224;28;20402;-50
2022/04/21 00:37:33;;;;;;;4.27;3.90;;;;;;;;;;4955544;28;20424;-51
2022/04/21 00:39:59;;;;;;;4.50;4.10;;;;;;;;;;4954653;28;20850;-50
2022/04/21 00:42:25;;;;;;;5.47;4.27;;;;;;;;;;4955199;28;20466;-50
2022/04/21 00:44:51;;;;;;;3.97;3.63;;;;;;;;;;4955120;28;20445;-50
2022/04/21 00:47:18;;;;;;;4.50;4.10;;;;;;;;;;4955191;28;20406;-52
2022/04/21 00:49:45;;;;;;;4.87;4.33;;;;;;;;;;4954237;28;20418;-51
2022/04/21 00:52:11;;;;;;;4.70;3.87;;;;;;;;;;4955111;28;20406;-51
2022/04/21 00:54:37;;;;;;;6.90;4.03;;;;;;;;;;4955005;28;20413;-50
2022/04/21 00:57:04;;;;;;;4.87;4.00;;;;;;;;;;4955006;28;20410;-50
2022/04/21 00:59:30;;;;;;;5.17;4.67;;;;;;;;;;4954219;28;20429;-51
2022/04/21 01:04:42;;;;;;;5.83;5.07;;;;;;;;;;4954201;29;20411;-50
2022/04/21 01:07:08;;;;;;;6.60;5.57;;;;;;;;;;4954574;28;20477;-52
2022/04/21 01:09:35;;;;;;;5.93;5.33;;;;;;;;;;4954038;28;20448;-50
2022/04/21 01:12:01;;;;;;;6.40;5.80;;;;;;;;;;4954638;28;20404;-50
2022/04/21 01:14:27;;;;;;;9.33;5.23;;;;;;;;;;4954618;28;20415;-50
2022/04/21 01:16:53;;;;;;;6.00;5.50;;;;;;;;;;4954512;28;20402;-50
2022/04/21 01:19:19;;;;;;;6.53;5.13;;;;;;;;;;4953826;28;20429;-51
2022/04/21 01:21:46;;;;;;;7.77;6.07;;;;;;;;;;4954505;28;20763;-50
2022/04/21 01:24:12;;;;;;;8.20;4.83;;;;;;;;;;4954452;28;20832;-50
2022/04/21 01:26:38;;;;;;;9.93;5.83;;;;;;;;;;4954446;28;20417;-50
2022/04/21 01:29:07;;;;;;;7.80;5.50;;;;;;;;;;4952047;28;20429;-51
2022/04/21 01:31:33;;;;;;;5.57;5.17;;;;;;;;;;4954420;28;20433;-49
2022/04/21 01:33:59;;;;;;;6.30;5.70;;;;;;;;;;4954356;28;20844;-50
2022/04/21 01:36:27;;;;;;;5.80;5.30;;;;;;;;;;4953442;28;20417;-50
2022/04/21 01:41:37;;;;;;;7.70;5.80;;;;;;;;;;4954178;29;20858;-50
2022/04/21 01:44:03;;;;;;;6.50;5.37;;;;;;;;;;4954136;28;20540;-50
2022/04/21 01:46:29;;;;;;;9.40;6.03;;;;;;;;;;4954214;28;20757;-50
2022/04/21 01:48:55;;;;;;;5.77;5.03;;;;;;;;;;4953388;28;20454;-50
2022/04/21 01:51:21;;;;;;;6.17;4.83;;;;;;;;;;4954063;28;20853;-51
2022/04/21 01:53:48;;;;;;;5.97;4.97;;;;;;;;;;4953995;28;20796;-51
2022/04/21 01:56:14;;;;;;;5.93;5.33;;;;;;;;;;4953922;28;20410;-52
2022/04/21 01:58:40;;;;;;;5.20;4.70;;;;;;;;;;4953248;28;20906;-50
2022/04/21 02:04:10;;;;;;;5.10;4.70;;;;;;;;;;4953834;29;20477;-50
2022/04/21 02:06:36;;;;;;;5.93;3.80;;;;;;;;;;4954030;28;20425;-50
2022/04/21 02:09:02;;;;;;;4.87;4.10;;;;;;;;;;4953169;28;20424;-49
2022/04/21 02:11:28;;;;;;;5.30;4.77;;;;;;;;;;4953783;28;20440;-49
2022/04/21 02:13:54;;;;;;;5.10;4.70;;;;;;;;;;4953881;28;20433;-50
2022/04/21 02:16:20;;;;;;;5.67;5.10;;;;;;;;;;4953713;28;20409;-50
2022/04/21 02:18:50;;;;;;;5.77;4.80;;;;;;;;;;4954159;28;20413;-58
2022/04/21 02:21:16;;;;;;;8.57;4.47;;;;;;;;;;4953638;28;20447;-50
2022/04/21 02:23:42;;;;;;;19.07;5.60;;;;;;;;;;4953931;28;20491;-50
2022/04/21 02:26:08;;;;;;;5.60;4.53;;;;;;;;;;4953596;28;20396;-51
2022/04/21 02:28:34;;;;;;;5.57;5.07;;;;;;;;;;4952904;28;20406;-51
2022/04/21 02:31:00;;;;;;;5.20;4.70;;;;;;;;;;4952019;28;20423;-52
2022/04/21 02:33:26;;;;;;;5.40;4.87;;;;;;;;;;4953600;28;20657;-49
2022/04/21 02:35:52;;;;;;;5.20;4.80;;;;;;;;;;4953676;28;20408;-50
2022/04/21 02:38:18;;;;;;;5.30;4.90;;;;;;;;;;4953530;28;20409;-49
2022/04/21 02:40:45;;;;;;;7.90;6.40;;;;;;;;;;4952930;28;20433;-50
2022/04/21 02:43:11;;;;;;;8.60;5.67;;;;;;;;;;4953377;28;20455;-51
2022/04/21 02:45:38;;;;;;;5.53;5.00;;;;;;;;;;4953507;28;20957;-50
2022/04/21 02:48:05;;;;;;;8.20;5.33;;;;;;;;;;4957035;28;20890;-50
2022/04/21 02:50:31;;;;;;;6.67;5.47;;;;;;;;;;4956565;28;20419;-49
2022/04/21 02:52:58;;;;;;;6.03;5.50;;;;;;;;;;4957209;28;20412;-50
2022/04/21 02:58:09;;;;;;;8.50;6.00;;;;;;;;;;4957113;29;20382;-50
2022/04/21 03:00:35;;;;;;;6.43;5.17;;;;;;;;;;4956406;28;20450;-50
2022/04/21 03:03:01;;;;;;;5.37;4.87;;;;;;;;;;4957162;28;21068;-51
2022/04/21 03:05:27;;;;;;;6.13;5.53;;;;;;;;;;4957211;28;20406;-51
2022/04/21 03:07:54;;;;;;;11.93;5.70;;;;;;;;;;4956995;28;20406;-51
2022/04/21 03:10:20;;;;;;;6.50;5.73;;;;;;;;;;4956106;28;20427;-49
2022/04/21 03:12:46;;;;;;;7.17;6.10;;;;;;;;;;4956791;28;20441;-50
2022/04/21 03:15:12;;;;;;;8.40;5.70;;;;;;;;;;4956910;28;20442;-50
2022/04/21 03:17:39;;;;;;;6.40;5.80;;;;;;;;;;4956739;28;20412;-50
2022/04/21 03:20:05;;;;;;;6.80;6.20;;;;;;;;;;4956073;28;20529;-49
2022/04/21 03:25:17;;;;;;;9.20;6.13;;;;;;;;;;4956689;29;20457;-51
2022/04/21 03:27:47;;;;;;;7.20;6.10;;;;;;;;;;4956630;28;20400;-50
2022/04/21 03:30:13;;;;;;;6.63;6.03;;;;;;;;;;4954355;28;20918;-51
2022/04/21 03:32:39;;;;;;;7.20;6.50;;;;;;;;;;4956364;28;20475;-50
2022/04/21 03:35:06;;;;;;;7.90;7.20;;;;;;;;;;4956462;28;20821;-49
2022/04/21 03:37:32;;;;;;;7.50;6.80;;;;;;;;;;4956388;28;20405;-51
2022/04/21 03:39:58;;;;;;;7.37;6.70;;;;;;;;;;4955692;28;20429;-49
2022/04/21 03:42:26;;;;;;;11.63;7.10;;;;;;;;;;4956330;28;20429;-50
2022/04/21 03:44:52;;;;;;;7.97;7.20;;;;;;;;;;4956355;28;20402;-50
2022/04/21 03:47:18;;;;;;;9.73;7.67;;;;;;;;;;4955788;28;20470;-53
2022/04/21 03:49:44;;;;;;;10.50;8.30;;;;;;;;;;4955337;28;20811;-54
2022/04/21 03:52:10;;;;;;;9.17;7.60;;;;;;;;;;4955773;28;20418;-52
2022/04/21 03:54:37;;;;;;;8.80;7.90;;;;;;;;;;4955451;28;20574;-54
2022/04/21 03:57:03;;;;;;;7.57;6.87;;;;;;;;;;4955701;28;20420;-50
2022/04/21 03:59:29;;;;;;;9.53;7.27;;;;;;;;;;4953826;29;20497;-48
2022/04/21 04:02:02;;;;;;;8.40;7.57;;;;;;;;;;4955912;29;20426;-52
2022/04/21 04:04:28;;;;;;;11.80;7.80;;;;;;;;;;4955675;28;20226;-49
2022/04/21 04:12:23;;;;;;;8.50;7.30;;;;;;;;;;4955843;29;20826;-49
2022/04/21 04:14:49;;;;;;;8.37;6.57;;;;;;;;;;4955269;28;20427;-48
2022/04/21 04:17:15;;;;;;;9.00;8.10;;;;;;;;;;4954958;28;20423;-49
2022/04/21 04:19:41;;;;;;;10.77;7.90;;;;;;;;;;4953656;28;20434;-49
2022/04/21 04:22:07;;;;;;;9.80;6.73;;;;;;;;;;4955348;28;20423;-49
2022/04/21 04:24:34;;;;;;;8.93;7.47;;;;;;;;;;4944467;28;20914;-49
2022/04/21 04:26:59;;;;;;;11.43;6.90;;;;;;;;;;4950372;29;20410;-49
2022/04/21 04:29:25;;;;;;;10.17;6.50;;;;;;;;;;4952995;28;20430;-49
2022/04/21 04:31:52;;;;;;;8.53;6.47;;;;;;;;;;4955295;28;20426;-49
2022/04/21 04:34:18;;;;;;;11.48;7.63;;;;;;;;;;4954434;28;20421;-49
2022/04/21 04:36:45;;;;;;;15.83;8.07;;;;;;;;;;4955133;28;20363;-49
2022/04/21 04:39:11;;;;;;;8.30;6.80;;;;;;;;;;4954215;28;20453;-49
2022/04/21 04:44:22;;;;;;;10.23;6.73;;;;;;;;;;4955204;29;20552;-49
2022/04/21 04:46:48;;;;;;;8.13;7.30;;;;;;;;;;4955297;28;20847;-52
2022/04/21 04:49:14;;;;;;;8.77;6.83;;;;;;;;;;4954348;28;20496;-48
2022/04/21 04:51:43;;;;;;;12.03;7.60;;;;;;;;;;4955085;28;20402;-49
2022/04/21 04:54:10;;;;;;;11.47;7.17;;;;;;;;;;4954993;28;20406;-49
2022/04/21 04:56:37;;;;;;;7.57;6.72;;;;;;;;;;4954989;28;20411;-48
2022/04/21 04:59:03;;;;;;;10.02;7.32;;;;;;;;;;4954350;28;20186;-49
2022/04/21 05:01:29;;;;;;;9.90;8.32;;;;;;;;;;4954971;28;20201;-48
2022/04/21 05:04:05;;;;;;;9.63;7.10;;;;;;;;;;4954768;28;20200;-50
2022/04/21 05:06:37;;;;;;;7.93;6.77;;;;;;;;;;4954847;28;20429;-52
2022/04/21 05:09:04;;;;;;;11.90;7.53;;;;;;;;;;4953684;28;20914;-48
2022/04/21 05:11:30;;;;;;;19.80;7.43;;;;;;;;;;4954749;28;20407;-49
2022/04/21 05:13:56;;;;;;;13.47;7.37;;;;;;;;;;4954667;28;20415;-51
2022/04/21 05:16:22;;;;;;;11.70;7.50;;;;;;;;;;4955151;28;20509;-49
2022/04/21 05:18:49;;;;;;;10.93;8.53;;;;;;;;;;4953724;28;20411;-48
2022/04/21 05:21:15;;;;;;;20.57;14.33;;;;;;;;;;4953229;28;20518;-50
2022/04/21 05:23:41;;;;;;;15.70;10.90;;;;;;;;;;4953077;28;20463;-49
2022/04/21 05:26:07;;;;;;;12.30;6.97;;;;;;;;;;4954626;28;20420;-49
2022/04/21 05:28:33;;;;;;;8.50;6.80;;;;;;;;;;4954093;28;20466;-54
2022/04/21 05:31:00;;;;;;;9.20;7.50;;;;;;;;;;4953949;28;20407;-50
2022/04/21 05:33:27;;;;;;;17.73;6.93;;;;;;;;;;4954169;28;21056;-48
2022/04/21 05:35:54;;;;;;;9.00;7.20;;;;;;;;;;4954365;28;20497;-52
2022/04/21 05:38:21;;;;;;;7.67;6.87;;;;;;;;;;4954176;28;20465;-49
2022/04/21 05:40:47;;;;;;;8.90;6.73;;;;;;;;;;4953493;28;21013;-48
2022/04/21 05:43:16;;;;;;;13.10;6.07;;;;;;;;;;4953226;28;20468;-49
2022/04/21 05:45:42;;;;;;;10.27;6.80;;;;;;;;;;4953545;28;20412;-52
2022/04/21 05:48:08;;;;;;;8.00;7.20;;;;;;;;;;4953621;28;20418;-51
2022/04/21 05:50:34;;;;;;;7.67;6.87;;;;;;;;;;4952719;28;20434;-52
2022/04/21 05:53:02;;;;;;;8.17;6.70;;;;;;;;;;4953711;28;20441;-48
2022/04/21 05:55:34;;;;;;;9.67;6.30;;;;;;;;;;4953386;28;20413;-48
2022/04/21 05:58:00;;;;;;;7.93;6.67;;;;;;;;;;4954051;28;20400;-50
2022/04/21 06:00:25;;;;;;;9.83;7.67;;;;;;;;;;4952987;28;20456;-50
2022/04/21 06:02:51;;;;;;;7.53;6.73;;;;;;;;;;4954119;28;20456;-49
2022/04/21 06:05:17;;;;;;;8.33;6.53;;;;;;;;;;4953980;28;20417;-50
2022/04/21 06:07:44;;;;;;;8.70;6.80;;;;;;;;;;4953864;28;20537;-52
2022/04/21 06:10:10;;;;;;;7.87;6.10;;;;;;;;;;4953063;28;20567;-48
2022/04/21 06:12:36;;;;;;;12.87;7.27;;;;;;;;;;4953838;28;20406;-48
2022/04/21 06:15:03;;;;;;;6.57;5.80;;;;;;;;;;4953659;28;20417;-49
2022/04/21 06:17:28;;;;;;;11.80;7.03;;;;;;;;;;4954077;28;20410;-50
2022/04/21 06:19:55;;;;;;;6.53;5.50;;;;;;;;;;4953153;28;20763;-51
2022/04/21 06:22:21;;;;;;;6.97;6.10;;;;;;;;;;4958767;28;20413;-50
2022/04/21 06:24:47;;;;;;;5.97;5.40;;;;;;;;;;4960095;28;20786;-53
2022/04/21 06:27:13;;;;;;;6.50;5.90;;;;;;;;;;4959874;28;20431;-49
2022/04/21 06:29:39;;;;;;;6.50;5.47;;;;;;;;;;4959259;28;20476;-49
2022/04/21 06:32:05;;;;;;;6.17;5.57;;;;;;;;;;4960041;28;20422;-48
2022/04/21 06:34:32;;;;;;;10.13;6.13;;;;;;;;;;4960080;28;20398;-48
2022/04/21 06:36:58;;;;;;;16.27;6.93;;;;;;;;;;4959898;28;20421;-49
2022/04/21 06:39:24;;;;;;;7.23;5.67;;;;;;;;;;4959337;28;20528;-48
2022/04/21 06:41:50;;;;;;;7.00;5.90;;;;;;;;;;4959971;28;20504;-50
2022/04/21 06:49:45;;;;;;;7.80;6.40;;;;;;;;;;4959192;28;20456;-49
2022/04/21 06:52:11;;;;;;;10.13;6.23;;;;;;;;;;4959916;28;20485;-49
2022/04/21 06:54:37;;;;;;;8.67;5.77;;;;;;;;;;4959766;28;20409;-49
2022/04/21 06:57:03;;;;;;;7.27;5.90;;;;;;;;;;4960053;28;20441;-49
2022/04/21 06:59:29;;;;;;;6.43;5.70;;;;;;;;;;4959139;28;20508;-49
2022/04/21 07:01:55;;;;;;;6.70;6.10;;;;;;;;;;4959752;28;20497;-52
2022/04/21 07:04:22;;;;;;;6.87;6.23;;;;;;;;;;4959766;28;20461;-48
2022/04/21 07:06:48;;;;;;;6.30;5.80;;;;;;;;;;4959684;28;20402;-50
2022/04/21 07:09:15;;;;;;;6.90;6.20;;;;;;;;;;4958959;28;20504;-49
2022/04/21 07:11:43;;;;;;;11.30;6.27;;;;;;;;;;4959686;28;20441;-48
2022/04/21 07:14:10;;;;;;;9.13;5.67;;;;;;;;;;4959822;28;20405;-49
2022/04/21 07:16:36;;;;;;;6.07;5.43;;;;;;;;;;4959733;28;20418;-48
2022/04/21 07:19:01;;;;;;;7.27;6.03;;;;;;;;;;4958815;28;20472;-48
2022/04/21 07:21:28;;;;;;;6.30;5.70;;;;;;;;;;4959592;28;20424;-49
2022/04/21 07:23:54;;;;;;;5.70;5.17;;;;;;;;;;4959507;28;20457;-49
2022/04/21 07:26:20;;;;;;;6.87;6.27;;;;;;;;;;4959637;28;20918;-48
2022/04/21 07:28:46;;;;;;;6.27;5.63;;;;;;;;;;4958895;28;20406;-49
2022/04/21 07:31:12;;;;;;;5.93;5.33;;;;;;;;;;4959462;28;20381;-49
2022/04/21 07:33:38;;;;;;;4.73;4.33;;;;;;;;;;4957408;28;20468;-50
2022/04/21 07:36:04;;;;;;;5.40;4.90;;;;;;;;;;4956425;28;20793;-51
2022/04/21 07:38:31;;;;;;;4.83;4.43;;;;;;;;;;4955863;28;20446;-50
2022/04/21 07:40:57;;;;;;;11.83;4.67;;;;;;;;;;4956290;28;20434;-50
2022/04/21 07:43:23;;;;;;;6.37;4.87;;;;;;;;;;4956394;28;20602;-50
2022/04/21 07:45:49;;;;;;;5.80;4.37;;;;;;;;;;4956310;28;20428;-50
2022/04/21 07:48:15;;;;;;;4.23;3.80;;;;;;;;;;4956284;28;20882;-51
2022/04/21 07:50:42;;;;;;;5.83;4.60;;;;;;;;;;4955571;28;20426;-49
2022/04/21 07:53:14;;;;;;;5.23;4.13;;;;;;;;;;4956307;28;20418;-49
2022/04/21 07:55:40;;;;;;;4.93;3.80;;;;;;;;;;4956112;28;20775;-50
2022/04/21 07:58:07;;;;;;;4.67;4.30;;;;;;;;;;4956208;28;20500;-50
2022/04/21 08:00:38;;;;;;;4.77;4.47;;;;;;;;;;4955412;28;20429;-50
2022/04/21 08:03:04;;;;;;;5.57;4.40;;;;;;;;;;4956440;28;20486;-49
2022/04/21 08:05:30;;;;;;;5.87;4.50;;;;;;;;;;4955962;28;20493;-49
2022/04/21 08:07:58;;;;;;;4.93;3.67;;;;;;;;;;4955882;28;20825;-50
2022/04/21 08:10:25;;;;;;;4.90;4.50;;;;;;;;;;4955254;28;20426;-50
2022/04/21 08:12:52;;;;;;;5.50;4.50;;;;;;;;;;4955917;28;20973;-49
2022/04/21 08:15:21;;;;;;;4.73;4.23;;;;;;;;;;4955898;28;20444;-50
2022/04/21 08:17:47;;;;;;;5.50;4.20;;;;;;;;;;4955729;28;20501;-52
2022/04/21 08:20:13;;;;;;;4.53;3.77;;;;;;;;;;4955744;28;20426;-52
2022/04/21 08:22:40;;;;;;;4.10;3.70;;;;;;;;;;4955586;28;20560;-52
2022/04/21 08:33:20;;;;;;;4.70;3.80;;;;;;;;;;4955653;29;20428;-51
2022/04/21 08:35:48;;;;;;;3.53;3.27;;;;;;;;;;4955578;28;20938;-51
2022/04/21 08:38:14;;;;;;;4.70;3.23;;;;;;;;;;4955410;28;20392;-50
2022/04/21 08:40:53;;;;;;;4.93;3.30;;;;;;;;;;4954740;28;20424;-51
2022/04/21 08:43:19;;;;;;;8.27;3.07;;;;;;;;;;4955182;28;20555;-52
2022/04/21 08:45:46;;;;;;;6.60;4.30;;;;;;;;;;4955066;28;20495;-51
2022/04/21 08:48:13;;;;;;;9.30;3.87;;;;;;;;;;4955102;28;20899;-51
2022/04/21 08:50:39;;;;;;;4.37;3.43;;;;;;;;;;4954555;28;20426;-53
2022/04/21 08:53:06;;;;;;;4.47;4.10;;;;;;;;;;4955145;28;20489;-51
2022/04/21 08:55:32;;;;;;;3.83;3.60;;;;;;;;;;4955097;28;20406;-51
2022/04/21 08:57:59;;;;;;;6.30;4.47;;;;;;;;;;4955115;28;20414;-51
2022/04/21 09:00:25;;;;;;;7.17;3.80;;;;;;;;;;4953035;28;20435;-51
2022/04/21 09:02:51;;;;;;;5.00;4.60;;;;;;;;;;4954850;28;20877;-51
2022/04/21 09:05:17;;;;;;;11.10;4.73;;;;;;;;;;4954989;28;20421;-51
2022/04/21 09:07:46;;;;;;;4.13;3.73;;;;;;;;;;4954807;28;20432;-51
2022/04/21 09:10:13;;;;;;;5.90;3.67;;;;;;;;;;4953974;28;20880;-52
2022/04/21 09:12:47;;;;;;;5.73;4.83;;;;;;;;;;4954741;28;20437;-51
2022/04/21 09:15:14;;;;;;;4.87;4.43;;;;;;;;;;4954770;28;20416;-52
2022/04/21 09:17:41;;;;;;;6.07;4.77;;;;;;;;;;4954670;28;20434;-51
2022/04/21 09:20:08;;;;;;;6.47;4.13;;;;;;;;;;4953931;28;20433;-51
2022/04/21 09:22:34;;;;;;;7.00;4.03;;;;;;;;;;4954367;28;20448;-51
2022/04/21 09:25:00;;;;;;;6.50;4.53;;;;;;;;;;4954601;28;20416;-52
2022/04/21 09:27:42;;;;;;;4.60;3.70;;;;;;;;;;4954466;28;20407;-51
2022/04/21 09:30:10;;;;;;;5.03;4.63;;;;;;;;;;4953686;28;20515;-52
2022/04/21 09:32:37;;;;;;;6.60;4.40;;;;;;;;;;4954045;28;20398;-51
2022/04/21 09:35:07;;;;;;;9.33;3.80;;;;;;;;;;4954363;28;20802;-50
2022/04/21 09:37:33;;;;;;;5.60;4.23;;;;;;;;;;4954360;28;20947;-51
2022/04/21 09:40:01;;;;;;;4.77;4.37;;;;;;;;;;4953598;28;20449;-51
2022/04/21 09:42:28;;;;;;;5.40;3.80;;;;;;;;;;4954356;28;20388;-50
2022/04/21 09:47:53;;;;;;;6.27;4.13;;;;;;;;;;4954454;29;20383;-51
2022/04/21 09:50:20;;;;;;;4.53;4.13;;;;;;;;;;4953454;28;20474;-52
2022/04/21 09:52:47;;;;;;;5.07;4.10;;;;;;;;;;4954055;28;20383;-52
2022/04/21 09:55:24;;;;;;;9.20;4.90;;;;;;;;;;4953885;28;20796;-51
2022/04/21 09:57:51;;;;;;;5.57;3.80;;;;;;;;;;4953626;28;20376;-51
2022/04/21 10:00:20;;;;;;;6.60;4.33;;;;;;;;;;4952087;28;20462;-50
2022/04/21 10:02:47;;;;;;;6.03;4.23;;;;;;;;;;4953967;28;20433;-51
2022/04/21 10:05:14;;;;;;;3.83;3.53;;;;;;;;;;4954237;28;20469;-51
2022/04/21 10:07:40;;;;;;;4.77;4.33;;;;;;;;;;4954083;28;20732;-51
2022/04/21 10:10:07;;;;;;;7.30;3.80;;;;;;;;;;4953207;28;20443;-50
2022/04/21 10:12:33;;;;;;;5.97;3.00;;;;;;;;;;4953821;28;20402;-51
2022/04/21 10:15:01;;;;;;;3.50;3.27;;;;;;;;;;4954018;28;20388;-51
2022/04/21 10:17:27;;;;;;;5.20;3.27;;;;;;;;;;4953833;28;20827;-51
2022/04/21 10:19:53;;;;;;;4.50;3.30;;;;;;;;;;4953536;28;20551;-50
2022/04/21 10:22:20;;;;;;;5.50;3.90;;;;;;;;;;4953970;28;20384;-50
2022/04/21 10:24:46;;;;;;;4.20;3.57;;;;;;;;;;4954119;28;20441;-53
2022/04/21 10:27:31;;;;;;;7.33;3.10;;;;;;;;;;4953704;28;20410;-51
2022/04/21 10:29:57;;;;;;;3.87;3.57;;;;;;;;;;4952970;28;20401;-50
2022/04/21 10:32:43;;;;;;;5.17;3.60;;;;;;;;;;4953755;28;20433;-51
2022/04/21 10:35:19;;;;;;;3.83;3.47;;;;;;;;;;4953617;28;20906;-50
2022/04/21 10:37:45;;;;;;;8.30;3.70;;;;;;;;;;4953583;28;20375;-50
2022/04/21 10:40:14;;;;;;;6.73;4.40;;;;;;;;;;4952930;28;20428;-51
2022/04/21 10:42:52;;;;;;;4.67;4.17;;;;;;;;;;4953479;28;20492;-50
2022/04/21 10:45:24;;;;;;;4.37;4.00;;;;;;;;;;4953288;28;20377;-52
2022/04/21 10:48:06;;;;;;;3.93;3.63;;;;;;;;;;4952573;28;20405;-52
2022/04/21 10:50:32;;;;;;;4.57;4.20;;;;;;;;;;4951285;28;20434;-51
2022/04/21 10:58:34;;;;;;;4.20;3.80;;;;;;;;;;4952658;29;20481;-55
2022/04/21 11:01:15;;;;;;;4.67;4.20;;;;;;;;;;4953434;28;20473;-56
2022/04/21 11:03:42;;;;;;;3.47;3.17;;;;;;;;;;4953411;28;20557;-55
2022/04/21 11:06:09;;;;;;;3.97;3.67;;;;;;;;;;4953414;28;20436;-55
2022/04/21 11:08:35;;;;;;;4.83;4.10;;;;;;;;;;4955228;28;20499;-54
2022/04/21 11:11:01;;;;;;;5.40;4.00;;;;;;;;;;4956889;28;20514;-55
2022/04/21 11:13:42;;;;;;;5.30;3.70;;;;;;;;;;4956952;28;20414;-56
2022/04/21 11:16:08;;;;;;;4.73;4.07;;;;;;;;;;4956781;28;20417;-55
2022/04/21 11:18:34;;;;;;;4.00;3.60;;;;;;;;;;4956108;28;20497;-55
2022/04/21 11:21:18;;;;;;;4.10;3.63;;;;;;;;;;4956670;28;20881;-55
2022/04/21 11:23:44;;;;;;;4.00;3.60;;;;;;;;;;4956838;28;20608;-55
2022/04/21 11:26:11;;;;;;;6.33;3.90;;;;;;;;;;4956582;28;20897;-55
2022/04/21 11:28:42;;;;;;;7.80;4.00;;;;;;;;;;4956353;28;20826;-54
2022/04/21 11:31:08;;;;;;;3.90;3.50;;;;;;;;;;4956449;28;20473;-54
2022/04/21 11:33:35;;;;;;;3.80;3.50;;;;;;;;;;4956575;28;20445;-54
2022/04/21 11:36:05;;;;;;;5.27;4.40;;;;;;;;;;4956359;28;20405;-54
2022/04/21 11:38:34;;;;;;;4.63;4.07;;;;;;;;;;4956076;28;20770;-54
2022/04/21 11:41:04;;;;;;;4.77;4.37;;;;;;;;;;4956524;28;20406;-53
2022/04/21 11:43:30;;;;;;;6.50;4.50;;;;;;;;;;4956356;28;20465;-52
2022/04/21 11:45:56;;;;;;;5.43;4.80;;;;;;;;;;4956387;28;20403;-53
2022/04/21 11:48:27;;;;;;;4.60;4.30;;;;;;;;;;4956225;28;20771;-53
2022/04/21 11:50:53;;;;;;;5.17;4.70;;;;;;;;;;4956337;28;20432;-54
2022/04/21 11:53:20;;;;;;;5.50;4.70;;;;;;;;;;4956334;28;20493;-54
2022/04/21 11:55:47;;;;;;;5.37;4.50;;;;;;;;;;4956130;28;20406;-52
2022/04/21 11:58:13;;;;;;;7.20;4.23;;;;;;;;;;4956232;28;20905;-53
2022/04/21 12:06:28;;;;;;;6.80;4.97;;;;;;;;;;4955957;29;20409;-54
2022/04/21 12:08:54;;;;;;;4.63;4.23;;;;;;;;;;4955490;28;20903;-54
2022/04/21 12:11:22;;;;;;;8.10;3.83;;;;;;;;;;4955781;28;20401;-53
2022/04/21 12:13:49;;;;;;;5.33;4.40;;;;;;;;;;4956086;28;20406;-54
2022/04/21 12:16:36;;;;;;;8.97;4.40;;;;;;;;;;4955863;28;20452;-53
2022/04/21 12:19:12;;;;;;;7.23;4.10;;;;;;;;;;4954038;28;20886;-53
2022/04/21 12:21:38;;;;;;;12.13;4.60;;;;;;;;;;4955571;28;20405;-54
2022/04/21 12:24:11;;;;;;;4.40;3.73;;;;;;;;;;4955600;28;20918;-53
2022/04/21 12:26:37;;;;;;;7.90;4.57;;;;;;;;;;4955668;28;20408;-53
2022/04/21 12:29:06;;;;;;;4.80;4.40;;;;;;;;;;4953467;28;20429;-54
2022/04/21 12:31:42;;;;;;;7.70;4.40;;;;;;;;;;4955447;28;20423;-53
2022/04/21 12:34:08;;;;;;;5.10;4.70;;;;;;;;;;4955326;28;20482;-53
2022/04/21 12:36:34;;;;;;;7.83;4.80;;;;;;;;;;4955678;28;20449;-53
2022/04/21 12:39:03;;;;;;;4.70;4.30;;;;;;;;;;4954849;28;20933;-54
2022/04/21 12:41:29;;;;;;;5.03;4.53;;;;;;;;;;4955367;28;20480;-54
2022/04/21 12:43:57;;;;;;;7.63;4.83;;;;;;;;;;4955295;28;20898;-54
2022/04/21 12:46:23;;;;;;;5.40;4.20;;;;;;;;;;4955208;28;20406;-54
2022/04/21 12:48:49;;;;;;;5.07;4.67;;;;;;;;;;4954257;28;20750;-53
2022/04/21 12:51:19;;;;;;;5.23;4.57;;;;;;;;;;4955231;28;20398;-53
2022/04/21 12:53:45;;;;;;;5.50;5.00;;;;;;;;;;4955079;28;20899;-54
2022/04/21 12:56:12;;;;;;;6.07;5.23;;;;;;;;;;4955144;28;20415;-54
2022/04/21 12:58:38;;;;;;;7.80;5.00;;;;;;;;;;4954233;28;20412;-53
2022/04/21 13:01:05;;;;;;;4.83;4.40;;;;;;;;;;4955044;28;20411;-53
2022/04/21 13:03:32;;;;;;;10.87;4.37;;;;;;;;;;4954717;28;20452;-53
2022/04/21 13:05:58;;;;;;;11.10;5.00;;;;;;;;;;4955135;28;20415;-53
2022/04/21 13:08:28;;;;;;;5.30;4.90;;;;;;;;;;4954407;28;20404;-53
2022/04/21 13:10:55;;;;;;;6.00;4.97;;;;;;;;;;4955050;28;20865;-53
2022/04/21 13:13:21;;;;;;;5.37;4.57;;;;;;;;;;4954757;28;20437;-54
2022/04/21 13:15:47;;;;;;;4.70;4.30;;;;;;;;;;4954491;28;20402;-54
2022/04/21 13:18:15;;;;;;;4.93;4.53;;;;;;;;;;4955253;28;20418;-55
2022/04/21 13:23:26;;;;;;;5.90;5.00;;;;;;;;;;4954744;29;20460;-56
2022/04/21 13:25:53;;;;;;;4.93;4.20;;;;;;;;;;4954480;28;20405;-55
2022/04/21 13:28:19;;;;;;;6.10;4.47;;;;;;;;;;4954338;28;20433;-54
2022/04/21 13:30:45;;;;;;;6.03;5.07;;;;;;;;;;4953619;28;20957;-54
2022/04/21 13:33:23;;;;;;;4.80;4.30;;;;;;;;;;4954421;28;20516;-56
2022/04/21 13:35:52;;;;;;;6.50;4.67;;;;;;;;;;4954429;28;20414;-56
2022/04/21 13:38:19;;;;;;;7.70;5.47;;;;;;;;;;4954259;28;20408;-56
2022/04/21 13:40:45;;;;;;;4.83;4.53;;;;;;;;;;4953522;28;20484;-56
2022/04/21 13:43:11;;;;;;;8.03;4.90;;;;;;;;;;4954093;28;20519;-55
2022/04/21 13:45:37;;;;;;;8.87;5.00;;;;;;;;;;4954203;28;20409;-56
2022/04/21 13:48:04;;;;;;;5.20;4.50;;;;;;;;;;4954205;28;20473;-55
2022/04/21 13:50:30;;;;;;;5.63;4.90;;;;;;;;;;4953445;28;20601;-55
2022/04/21 13:52:56;;;;;;;5.40;4.97;;;;;;;;;;4954164;28;20457;-56
2022/04/21 13:55:22;;;;;;;5.37;4.80;;;;;;;;;;4953976;28;20414;-55
2022/04/21 13:57:48;;;;;;;5.70;4.60;;;;;;;;;;4954066;28;20400;-56
2022/04/21 14:00:14;;;;;;;5.93;5.43;;;;;;;;;;4953121;28;20516;-55
2022/04/21 14:02:40;;;;;;;4.87;4.30;;;;;;;;;;4953773;28;20978;-56
2022/04/21 14:05:06;;;;;;;5.73;5.17;;;;;;;;;;4954279;28;20485;-56
2022/04/21 14:07:32;;;;;;;6.53;4.90;;;;;;;;;;4953773;28;20485;-56
2022/04/21 14:09:58;;;;;;;5.10;4.70;;;;;;;;;;4953495;28;20945;-56
2022/04/21 14:12:24;;;;;;;5.43;5.03;;;;;;;;;;4954102;28;20417;-56
2022/04/21 14:14:52;;;;;;;9.33;5.80;;;;;;;;;;4953848;28;20767;-55
2022/04/21 14:17:18;;;;;;;6.80;5.43;;;;;;;;;;4953832;28;20409;-56
2022/04/21 14:19:44;;;;;;;5.60;5.10;;;;;;;;;;4952946;28;20477;-54
2022/04/21 14:22:10;;;;;;;9.90;4.97;;;;;;;;;;4953800;28;20586;-54
2022/04/21 14:24:37;;;;;;;6.33;5.30;;;;;;;;;;4953481;28;20560;-56
2022/04/21 14:27:03;;;;;;;6.83;5.63;;;;;;;;;;4953745;28;20402;-55
2022/04/21 14:29:29;;;;;;;5.53;5.03;;;;;;;;;;4951981;28;20465;-55
2022/04/21 14:31:55;;;;;;;7.50;5.60;;;;;;;;;;4953331;29;20461;-56
2022/04/21 14:34:21;;;;;;;5.50;4.83;;;;;;;;;;4953720;28;20414;-56
2022/04/21 14:36:48;;;;;;;5.03;4.57;;;;;;;;;;4953619;28;20500;-56
2022/04/21 14:44:43;;;;;;;5.80;4.80;;;;;;;;;;4958501;29;20514;-56
2022/04/21 14:47:09;;;;;;;5.03;4.60;;;;;;;;;;4957450;28;20488;-55
2022/04/21 14:49:36;;;;;;;6.73;4.80;;;;;;;;;;4956629;28;20532;-55
2022/04/21 14:52:05;;;;;;;6.87;4.47;;;;;;;;;;4957406;28;20450;-56
2022/04/21 14:54:31;;;;;;;8.30;4.50;;;;;;;;;;4957239;28;20418;-55
2022/04/21 14:56:57;;;;;;;5.10;4.60;;;;;;;;;;4957293;28;20821;-55
2022/04/21 14:59:23;;;;;;;6.67;4.33;;;;;;;;;;4956564;28;20459;-55
2022/04/21 15:01:49;;;;;;;7.67;5.37;;;;;;;;;;4957175;28;20407;-55
2022/04/21 15:04:15;;;;;;;10.20;5.93;;;;;;;;;;4957052;28;20587;-55
2022/04/21 15:06:45;;;;;;;5.33;4.83;;;;;;;;;;4957112;28;20876;-56
2022/04/21 15:09:11;;;;;;;7.17;4.87;;;;;;;;;;4956449;28;20922;-55
2022/04/21 15:11:41;;;;;;;7.63;5.13;;;;;;;;;;4957009;28;20411;-56
2022/04/21 15:14:07;;;;;;;6.03;5.43;;;;;;;;;;4957005;28;20410;-56
2022/04/21 15:16:33;;;;;;;5.63;5.13;;;;;;;;;;4957393;28;20406;-54
2022/04/21 15:19:00;;;;;;;6.90;4.33;;;;;;;;;;4956086;28;20440;-56
2022/04/21 15:21:26;;;;;;;6.63;4.50;;;;;;;;;;4956906;28;20493;-56
2022/04/21 15:23:52;;;;;;;11.13;6.63;;;;;;;;;;4956898;28;20548;-55
2022/04/21 15:26:18;;;;;;;6.77;4.70;;;;;;;;;;4956911;28;20772;-55
2022/04/21 15:28:45;;;;;;;8.93;4.40;;;;;;;;;;4953903;28;20929;-53
2022/04/21 15:31:11;;;;;;;4.77;4.37;;;;;;;;;;4956591;28;20768;-54
2022/04/21 15:33:37;;;;;;;7.63;4.33;;;;;;;;;;4956240;28;20468;-53
2022/04/21 15:36:04;;;;;;;11.37;4.80;;;;;;;;;;4955372;28;20949;-55
2022/04/21 15:38:30;;;;;;;5.83;4.80;;;;;;;;;;4955410;28;20411;-55
2022/04/21 15:40:56;;;;;;;5.50;4.73;;;;;;;;;;4956340;28;20417;-54